createdAt,value
2017-07-04T04:26:42.907Z,1004
2017-07-04T12:42:09.993Z,51584
2017-07-04T12:43:12.733Z,48288
2017-07-04T12:44:15.418Z,45152
2017-07-04T12:45:19.377Z,43360
2017-07-04T12:46:21.957Z,41760
2017-07-04T12:47:24.545Z,39808
2017-07-04T12:48:27.145Z,38784
2017-07-04T12:49:29.893Z,37664
2017-07-04T12:50:33.089Z,36768
2017-07-04T12:51:35.656Z,14828
2017-07-04T12:52:38.236Z,35808
2017-07-04T12:53:40.778Z,35296
2017-07-04T12:54:43.439Z,35072
2017-07-04T12:55:45.985Z,34048
2017-07-04T12:56:48.520Z,33472
2017-07-04T12:57:51.261Z,32736
2017-07-04T12:58:53.912Z,32096
2017-07-04T12:59:56.572Z,31808
2017-07-04T13:00:59.118Z,31488
2017-07-04T13:02:01.633Z,30912
2017-07-04T13:03:04.268Z,30112
2017-07-04T13:04:06.847Z,29408
2017-07-04T13:05:09.351Z,28640
2017-07-04T13:06:11.882Z,28256
2017-07-04T13:07:14.724Z,28512
2017-07-04T13:08:17.417Z,28224
2017-07-04T13:09:20.113Z,27808
2017-07-04T13:10:22.785Z,27872
2017-07-04T13:11:25.394Z,27872
2017-07-04T13:12:28.047Z,27936
2017-07-04T13:13:30.546Z,28064
2017-07-04T13:14:33.126Z,28192
2017-07-04T13:15:35.618Z,28224
2017-07-04T13:16:38.219Z,28672
2017-07-04T13:17:40.983Z,28544
2017-07-04T13:18:43.639Z,28672
2017-07-04T13:19:46.109Z,28704
2017-07-04T13:20:52.762Z,28864
2017-07-04T13:21:55.309Z,28768
2017-07-04T13:22:57.896Z,28800
2017-07-04T13:24:00.586Z,28480
2017-07-04T13:25:03.255Z,28768
2017-07-04T13:26:06.895Z,28736
2017-07-04T13:27:09.564Z,28352
2017-07-04T13:28:12.229Z,27936
2017-07-04T13:29:14.914Z,27456
2017-07-04T13:30:17.581Z,27296
2017-07-04T13:31:20.255Z,26880
2017-07-04T13:32:22.844Z,26240
2017-07-04T13:33:25.423Z,25856
2017-07-04T13:34:28.080Z,25472
2017-07-04T13:35:30.755Z,24800
2017-07-04T13:36:33.435Z,24256
2017-07-04T13:37:36.120Z,24064
2017-07-04T13:38:38.793Z,24032
2017-07-04T13:39:41.356Z,24160
2017-07-04T13:40:43.927Z,24544
2017-07-04T13:41:46.472Z,25312
2017-07-04T13:42:49.080Z,25696
2017-07-04T13:43:51.601Z,25536
2017-07-04T13:44:54.262Z,25056
2017-07-04T13:45:56.739Z,24800
2017-07-04T13:46:59.228Z,24896
2017-07-04T13:48:01.910Z,24928
2017-07-04T13:49:04.489Z,24864
2017-07-04T13:50:07.118Z,25088
2017-07-04T13:51:09.630Z,25152
2017-07-04T13:52:12.232Z,25024
2017-07-04T13:53:14.911Z,25216
2017-07-04T13:54:17.581Z,24992
2017-07-04T13:55:20.249Z,24736
2017-07-04T13:56:22.916Z,24512
2017-07-04T13:57:25.391Z,24480
2017-07-04T13:58:27.985Z,24672
2017-07-04T13:59:30.733Z,24864
2017-07-04T14:00:33.288Z,25120
2017-07-04T14:01:36.004Z,25568
2017-07-04T14:02:38.582Z,25664
2017-07-04T14:03:41.165Z,25600
2017-07-04T14:04:43.744Z,25248
2017-07-04T14:05:46.414Z,24832
2017-07-04T14:06:49.148Z,24448
2017-07-04T14:07:51.835Z,24160
2017-07-04T14:08:54.520Z,24064
2017-07-04T14:09:57.032Z,23968
2017-07-04T14:10:59.665Z,24000
2017-07-04T14:12:02.185Z,24128
2017-07-04T14:13:04.760Z,23968
2017-07-04T14:14:07.339Z,23648
2017-07-04T14:15:09.926Z,23616
2017-07-04T14:16:12.619Z,23808
2017-07-04T14:17:15.180Z,23936
2017-07-04T14:18:17.883Z,24000
2017-07-04T14:19:20.562Z,24032
2017-07-04T14:20:23.273Z,24256
2017-07-04T14:21:25.956Z,24448
2017-07-04T14:22:29.179Z,24160
2017-07-04T14:23:31.707Z,23872
2017-07-04T14:24:34.287Z,23840
2017-07-04T14:25:37.431Z,24096
2017-07-04T14:26:39.945Z,24416
2017-07-04T14:27:42.516Z,24352
2017-07-04T14:28:45.167Z,24256
2017-07-04T14:29:47.686Z,24384
2017-07-04T14:30:50.283Z,24544
2017-07-04T14:31:52.804Z,24480
2017-07-04T14:32:55.317Z,24320
2017-07-04T14:33:57.846Z,24224
2017-07-04T14:35:00.427Z,24192
2017-07-04T14:36:02.947Z,24320
2017-07-04T14:37:05.477Z,23840
2017-07-04T14:38:08.057Z,23584
2017-07-04T14:39:11.678Z,23360
2017-07-04T14:40:14.253Z,23168
2017-07-04T14:41:16.840Z,23008
2017-07-04T14:42:19.412Z,23200
2017-07-04T14:43:21.985Z,23552
2017-07-04T14:44:24.562Z,23616
2017-07-04T14:45:27.254Z,24000
2017-07-04T14:46:29.820Z,24512
2017-07-04T14:47:32.490Z,25024
2017-07-04T14:48:35.164Z,25216
2017-07-04T14:49:37.833Z,25120
2017-07-04T14:50:40.504Z,25088
2017-07-04T14:51:43.081Z,25248
2017-07-04T14:52:45.756Z,25248
2017-07-04T14:53:48.305Z,25280
2017-07-04T14:54:50.891Z,25504
2017-07-04T14:55:53.571Z,26080
2017-07-04T14:56:56.277Z,26944
2017-07-04T14:57:58.983Z,27552
2017-07-04T14:59:01.770Z,27648
2017-07-04T15:00:04.242Z,28000
2017-07-04T15:01:06.826Z,28416
2017-07-04T15:02:10.156Z,28672
2017-07-04T15:03:12.817Z,28608
2017-07-04T15:04:16.663Z,28064
2017-07-04T15:05:19.204Z,27488
2017-07-04T15:06:21.926Z,27296
2017-07-04T15:07:24.433Z,27840
2017-07-04T15:08:27.006Z,28608
2017-07-04T15:09:29.624Z,28800
2017-07-04T15:10:32.258Z,28640
2017-07-04T15:11:34.945Z,28480
2017-07-04T15:12:37.508Z,28960
2017-07-04T15:13:40.181Z,29728
2017-07-04T15:14:42.688Z,30816
2017-07-04T15:15:45.321Z,31712
2017-07-04T15:16:48.023Z,32224
2017-07-04T15:17:50.722Z,32608
2017-07-04T15:18:53.405Z,32160
2017-07-04T15:19:55.973Z,33376
2017-07-04T15:20:58.560Z,34400
2017-07-04T15:22:01.150Z,35648
2017-07-04T15:23:03.735Z,35200
2017-07-04T15:24:06.334Z,36224
2017-07-04T15:25:08.905Z,37280
2017-07-04T15:26:14.272Z,39392
2017-07-04T15:27:16.953Z,42208
2017-07-04T15:28:21.179Z,41664
2017-07-04T15:29:23.739Z,40928
2017-07-04T15:30:26.274Z,40352
2017-07-04T15:31:28.763Z,41760
2017-07-04T15:32:31.341Z,42752
2017-07-04T15:33:33.883Z,44288
2017-07-04T15:34:36.414Z,42464
2017-07-04T15:35:38.981Z,40000
2017-07-04T15:36:41.590Z,39424
2017-07-04T15:37:44.278Z,37600
2017-07-04T15:38:49.192Z,36352
2017-07-04T15:39:51.076Z,37024
2017-07-04T15:40:53.760Z,34432
2017-07-04T15:41:56.538Z,34432
2017-07-04T15:44:05.243Z,35328
2017-07-04T15:45:09.471Z,35552
2017-07-04T15:46:15.582Z,37856
2017-07-04T15:47:21.068Z,39104
2017-07-04T15:48:25.408Z,38752
2017-07-04T15:49:29.388Z,38816
2017-07-04T15:51:13.092Z,38560
2017-07-04T15:52:15.581Z,37152
2017-07-04T15:53:18.155Z,37952
2017-07-04T15:54:20.643Z,36896
2017-07-04T15:55:23.227Z,34752
2017-07-04T15:56:25.922Z,36480
2017-07-04T15:57:28.494Z,33120
2017-07-04T15:58:31.077Z,32192
2017-07-04T15:59:33.757Z,31936
2017-07-04T16:00:36.506Z,32000
2017-07-04T16:01:39.215Z,33376
2017-07-04T16:02:41.884Z,33408
2017-07-04T16:03:44.501Z,33184
2017-07-04T16:04:47.099Z,33376
2017-07-04T16:05:49.677Z,33024
2017-07-04T16:06:52.351Z,32160
2017-07-04T16:07:54.935Z,32512
2017-07-04T16:08:57.519Z,33376
2017-07-04T16:10:00.103Z,33856
2017-07-04T16:11:02.778Z,33760
2017-07-04T16:12:05.369Z,34464
2017-07-04T16:13:07.890Z,35456
2017-07-04T16:14:10.496Z,34560
2017-07-04T16:15:13.097Z,34400
2017-07-04T16:16:15.617Z,35040
2017-07-04T16:17:18.110Z,34816
2017-07-04T16:18:20.650Z,33696
2017-07-04T16:19:23.177Z,31680
2017-07-04T16:20:25.671Z,31040
2017-07-04T16:21:28.346Z,30240
2017-07-04T16:22:30.817Z,30400
2017-07-04T16:23:33.355Z,30624
2017-07-04T16:24:36.050Z,31424
2017-07-04T16:25:38.746Z,31488
2017-07-04T16:26:41.442Z,31200
2017-07-04T16:27:44.104Z,30528
2017-07-04T16:28:46.792Z,31008
2017-07-04T16:29:49.496Z,31872
2017-07-04T16:30:52.180Z,31488
2017-07-04T16:31:54.841Z,31552
2017-07-04T16:32:57.416Z,31968
2017-07-04T16:33:59.989Z,32352
2017-07-04T16:35:02.672Z,32512
2017-07-04T16:36:05.235Z,32032
2017-07-04T16:37:07.927Z,32320
2017-07-04T16:38:10.637Z,31968
2017-07-04T16:39:13.265Z,31296
2017-07-04T16:40:15.947Z,31360
2017-07-04T16:41:18.508Z,32448
2017-07-04T16:42:21.132Z,33216
2017-07-04T16:43:23.672Z,33792
2017-07-04T16:44:26.212Z,34752
2017-07-04T16:45:28.788Z,34240
2017-07-04T16:46:31.518Z,33696
2017-07-04T16:47:34.192Z,32928
2017-07-04T16:48:36.962Z,32832
2017-07-04T16:49:39.633Z,32736
2017-07-04T16:50:42.306Z,32576
2017-07-04T16:51:44.990Z,32032
2017-07-04T16:52:47.665Z,31360
2017-07-04T16:53:50.242Z,30944
2017-07-04T16:54:52.815Z,30944
2017-07-04T16:55:55.396Z,30720
2017-07-04T16:56:57.998Z,30272
2017-07-04T16:58:00.630Z,29664
2017-07-04T16:59:03.161Z,29984
2017-07-04T17:00:05.770Z,30656
2017-07-04T17:01:13.009Z,30496
2017-07-04T17:02:18.974Z,31104
2017-07-04T17:03:21.416Z,29920
2017-07-04T17:04:24.110Z,29888
2017-07-04T17:05:26.735Z,30176
2017-07-04T17:06:29.355Z,30208
2017-07-04T17:07:31.868Z,30816
2017-07-04T17:08:34.541Z,29536
2017-07-04T17:09:38.152Z,28704
2017-07-04T17:10:40.886Z,28160
2017-07-04T17:11:43.582Z,28128
2017-07-04T17:12:46.164Z,29120
2017-07-04T17:13:48.845Z,29312
2017-07-04T17:14:51.503Z,29952
2017-07-04T17:15:54.164Z,31008
2017-07-04T17:16:56.730Z,31040
2017-07-04T17:17:59.412Z,30112
2017-07-04T17:19:02.079Z,29472
2017-07-04T17:20:04.836Z,28576
2017-07-04T17:21:07.506Z,27872
2017-07-04T17:22:11.269Z,27808
2017-07-04T17:23:13.893Z,27648
2017-07-04T17:24:16.382Z,27168
2017-07-04T17:25:19.025Z,26112
2017-07-04T17:26:21.676Z,25440
2017-07-04T17:27:24.306Z,25120
2017-07-04T17:28:27.567Z,24416
2017-07-04T17:29:30.041Z,23584
2017-07-04T17:30:33.542Z,22560
2017-07-04T17:31:36.112Z,21664
2017-07-04T17:32:38.743Z,21312
2017-07-04T17:33:41.352Z,21312
2017-07-04T17:34:43.987Z,21216
2017-07-04T17:35:46.604Z,20736
2017-07-04T17:36:49.227Z,20288
2017-07-04T17:37:51.806Z,20064
2017-07-04T17:38:54.576Z,20000
2017-07-04T17:39:57.171Z,20128
2017-07-04T17:40:59.846Z,20256
2017-07-04T17:42:02.408Z,20352
2017-07-04T17:43:04.994Z,20416
2017-07-04T17:44:07.583Z,20672
2017-07-04T17:45:10.187Z,20992
2017-07-04T17:46:12.766Z,21312
2017-07-04T17:47:15.444Z,21600
2017-07-04T17:48:18.100Z,21632
2017-07-04T17:49:20.795Z,21504
2017-07-04T17:50:23.453Z,21184
2017-07-04T17:51:26.133Z,20992
2017-07-04T17:52:28.820Z,20864
2017-07-04T17:53:31.486Z,20640
2017-07-04T17:54:34.213Z,20416
2017-07-04T17:55:36.879Z,20256
2017-07-04T17:56:39.489Z,20544
2017-07-04T17:57:41.981Z,20864
2017-07-04T17:58:44.687Z,21152
2017-07-04T17:59:47.254Z,21152
2017-07-04T18:00:49.775Z,21088
2017-07-04T18:01:52.291Z,20800
2017-07-04T18:02:54.807Z,20384
2017-07-04T18:03:57.391Z,20416
2017-07-04T18:05:00.023Z,20576
2017-07-04T18:06:02.633Z,20672
2017-07-04T18:07:05.297Z,20640
2017-07-04T18:08:07.862Z,20704
2017-07-04T18:09:10.441Z,20512
2017-07-04T18:10:13.123Z,20320
2017-07-04T18:11:15.758Z,20320
2017-07-04T18:12:18.270Z,20448
2017-07-04T18:13:20.982Z,20640
2017-07-04T18:14:23.613Z,20800
2017-07-04T18:15:26.198Z,20640
2017-07-04T18:16:28.904Z,20640
2017-07-04T18:17:31.490Z,21152
2017-07-04T18:18:34.077Z,21792
2017-07-04T18:19:36.774Z,21984
2017-07-04T18:20:39.335Z,21760
2017-07-04T18:21:42.038Z,21536
2017-07-04T18:22:44.974Z,21728
2017-07-04T18:23:47.672Z,21568
2017-07-04T18:24:50.358Z,21280
2017-07-04T18:25:52.946Z,21408
2017-07-04T18:26:55.543Z,21728
2017-07-04T18:27:58.067Z,22272
2017-07-04T18:29:00.716Z,22528
2017-07-04T18:30:03.411Z,22400
2017-07-04T18:31:06.081Z,22400
2017-07-04T18:32:08.763Z,22432
2017-07-04T18:33:11.449Z,22528
2017-07-04T18:34:15.654Z,22240
2017-07-04T18:35:18.309Z,21696
2017-07-04T18:36:20.879Z,21504
2017-07-04T18:37:23.442Z,21440
2017-07-04T18:38:25.931Z,21664
2017-07-04T18:39:28.463Z,21952
2017-07-04T18:40:31.526Z,22208
2017-07-04T18:41:34.026Z,22336
2017-07-04T18:42:36.712Z,22304
2017-07-04T18:43:39.284Z,22464
2017-07-04T18:44:41.974Z,22688
2017-07-04T18:45:44.582Z,23040
2017-07-04T18:46:47.121Z,23264
2017-07-04T18:47:49.747Z,23104
2017-07-04T18:48:52.328Z,22560
2017-07-04T18:49:54.915Z,21824
2017-07-04T18:50:57.620Z,21344
2017-07-04T18:52:00.876Z,21280
2017-07-04T18:53:03.541Z,20960
2017-07-04T18:54:06.259Z,20640
2017-07-04T18:55:08.855Z,20480
2017-07-04T18:56:11.524Z,20608
2017-07-04T18:57:14.161Z,20960
2017-07-04T18:58:16.739Z,21088
2017-07-04T18:59:19.271Z,20832
2017-07-04T19:00:21.954Z,20384
2017-07-04T19:01:24.578Z,19872
2017-07-04T19:02:27.175Z,19712
2017-07-04T19:03:29.771Z,19840
2017-07-04T19:04:32.245Z,20000
2017-07-04T19:05:35.009Z,19968
2017-07-04T19:06:37.481Z,19904
2017-07-04T19:07:40.006Z,19808
2017-07-04T19:08:42.622Z,19840
2017-07-04T19:09:45.301Z,20064
2017-07-04T19:10:47.802Z,20288
2017-07-04T19:11:50.483Z,20480
2017-07-04T19:12:53.200Z,20416
2017-07-04T19:13:55.891Z,20000
2017-07-04T19:14:58.584Z,19584
2017-07-04T19:16:01.262Z,19808
2017-07-04T19:17:03.937Z,19968
2017-07-04T19:18:06.650Z,19936
2017-07-04T19:19:09.350Z,19712
2017-07-04T19:20:11.924Z,19360
2017-07-04T19:21:14.512Z,19328
2017-07-04T19:22:17.153Z,19232
2017-07-04T19:23:19.849Z,19104
2017-07-04T19:24:22.431Z,18784
2017-07-04T19:25:24.968Z,18432
2017-07-04T19:26:27.555Z,17920
2017-07-04T19:27:30.154Z,17728
2017-07-04T19:28:32.704Z,17504
2017-07-04T19:29:35.220Z,17160
2017-07-04T19:30:37.800Z,17008
2017-07-04T19:31:40.355Z,17176
2017-07-04T19:32:42.882Z,17144
2017-07-04T19:33:45.371Z,16904
2017-07-04T19:34:47.933Z,16840
2017-07-04T19:35:50.471Z,16976
2017-07-04T19:36:53.142Z,16604
2017-07-04T19:37:55.661Z,16072
2017-07-04T19:38:58.237Z,16076
2017-07-04T19:40:00.809Z,16212
2017-07-04T19:41:03.478Z,16208
2017-07-04T19:42:06.148Z,15916
2017-07-04T19:43:08.819Z,16300
2017-07-04T19:44:11.487Z,17004
2017-07-04T19:45:14.170Z,17440
2017-07-04T19:46:16.763Z,17760
2017-07-04T19:47:19.366Z,17824
2017-07-04T19:48:21.864Z,17568
2017-07-04T19:49:24.448Z,17920
2017-07-04T19:50:27.056Z,18624
2017-07-04T19:51:29.625Z,18336
2017-07-04T19:52:32.198Z,17100
2017-07-04T19:53:34.933Z,16096
2017-07-04T19:54:37.641Z,15104
2017-07-04T19:55:40.240Z,14172
2017-07-04T19:56:42.917Z,13664
2017-07-04T19:57:45.527Z,13144
2017-07-04T19:58:48.139Z,12840
2017-07-04T19:59:50.790Z,12932
2017-07-04T20:00:53.427Z,13160
2017-07-04T20:01:55.995Z,13400
2017-07-04T20:02:58.672Z,13736
2017-07-04T20:04:01.345Z,14000
2017-07-04T20:05:04.922Z,14180
2017-07-04T20:06:07.603Z,14020
2017-07-04T20:07:10.204Z,14020
2017-07-04T20:08:12.895Z,14732
2017-07-04T20:09:15.472Z,15420
2017-07-04T20:10:18.144Z,16116
2017-07-04T20:11:20.845Z,16600
2017-07-04T20:12:23.512Z,16564
2017-07-04T20:13:26.186Z,16284
2017-07-04T20:14:28.685Z,15980
2017-07-04T20:15:31.285Z,15744
2017-07-04T20:16:33.870Z,15312
2017-07-04T20:17:36.401Z,14860
2017-07-04T20:18:39.078Z,14520
2017-07-04T20:19:41.798Z,14028
2017-07-04T20:20:44.367Z,13388
2017-07-04T20:21:47.040Z,12836
2017-07-04T20:22:49.691Z,12480
2017-07-04T20:23:52.157Z,12460
2017-07-04T20:24:54.665Z,12440
2017-07-04T20:25:57.150Z,12372
2017-07-04T20:26:59.736Z,12400
2017-07-04T20:28:02.350Z,12468
2017-07-04T20:29:05.081Z,12640
2017-07-04T20:30:07.627Z,12532
2017-07-04T20:31:10.301Z,12204
2017-07-04T20:32:13.753Z,11820
2017-07-04T20:33:16.410Z,11620
2017-07-04T20:34:19.091Z,11696
2017-07-04T20:35:21.733Z,11800
2017-07-04T20:36:24.249Z,11936
2017-07-04T20:37:26.930Z,12160
2017-07-04T20:38:29.548Z,12252
2017-07-04T20:39:32.214Z,12284
2017-07-04T20:40:34.882Z,12360
2017-07-04T20:41:37.551Z,12300
2017-07-04T20:42:40.229Z,12336
2017-07-04T20:43:42.800Z,12420
2017-07-04T20:44:45.514Z,12632
2017-07-04T20:45:48.081Z,12812
2017-07-04T20:46:50.699Z,13008
2017-07-04T20:47:53.271Z,13336
2017-07-04T20:48:55.924Z,13568
2017-07-04T20:49:58.494Z,13600
2017-07-04T20:51:01.129Z,13584
2017-07-04T20:52:03.758Z,13476
2017-07-04T20:53:06.406Z,13172
2017-07-04T20:54:08.942Z,13000
2017-07-04T20:55:11.616Z,13208
2017-07-04T20:56:14.203Z,13520
2017-07-04T20:57:16.794Z,13656
2017-07-04T20:58:19.328Z,13544
2017-07-04T20:59:21.942Z,13204
2017-07-04T21:00:24.435Z,13004
2017-07-04T21:01:26.988Z,12776
2017-07-04T21:02:29.576Z,12624
2017-07-04T21:03:32.065Z,12572
2017-07-04T21:04:34.662Z,12516
2017-07-04T21:05:37.406Z,12204
2017-07-04T21:06:39.874Z,11820
2017-07-04T21:07:42.506Z,11404
2017-07-04T21:08:45.203Z,11008
2017-07-04T21:09:47.899Z,10808
2017-07-04T21:10:50.592Z,10804
2017-07-04T21:11:53.286Z,10760
2017-07-04T21:13:09.875Z,10660
2017-07-04T21:14:28.885Z,10412
2017-07-04T21:15:57.913Z,10372
2017-07-04T21:17:00.978Z,10536
2017-07-04T21:18:04.008Z,10616
2017-07-04T21:19:06.604Z,10632
2017-07-04T21:20:11.257Z,10624
2017-07-04T21:21:13.969Z,10648
2017-07-04T21:22:16.736Z,10868
2017-07-04T21:23:21.649Z,11032
2017-07-04T21:24:24.371Z,11084
2017-07-04T21:25:27.940Z,10980
2017-07-04T21:26:32.366Z,10948
2017-07-04T21:27:39.527Z,10984
2017-07-04T21:28:42.182Z,11248
2017-07-04T21:29:44.978Z,11600
2017-07-04T21:30:47.599Z,11716
2017-07-04T21:31:51.831Z,11740
2017-07-04T21:32:54.787Z,11624
2017-07-04T21:33:57.610Z,11488
2017-07-04T21:35:00.454Z,11488
2017-07-04T21:36:03.158Z,11540
2017-07-04T21:37:06.011Z,11568
2017-07-04T21:38:08.806Z,11472
2017-07-04T21:39:11.453Z,11352
2017-07-04T21:40:14.210Z,11264
2017-07-04T21:41:17.072Z,11164
2017-07-04T21:42:19.870Z,11104
2017-07-04T21:43:22.632Z,11020
2017-07-04T21:44:25.178Z,10936
2017-07-04T21:45:29.738Z,10836
2017-07-04T21:46:32.500Z,10756
2017-07-04T21:47:35.234Z,10684
2017-07-04T21:48:37.949Z,10752
2017-07-04T21:49:40.603Z,10776
2017-07-04T21:50:43.248Z,10760
2017-07-04T21:51:48.867Z,10816
2017-07-04T21:52:51.620Z,10920
2017-07-04T21:53:54.518Z,11024
2017-07-04T21:54:57.181Z,11180
2017-07-04T21:55:59.956Z,11376
2017-07-04T21:57:02.670Z,11404
2017-07-04T21:58:05.342Z,11420
2017-07-04T21:59:08.893Z,11496
2017-07-04T22:00:11.800Z,11468
2017-07-04T22:01:14.639Z,11268
2017-07-04T22:02:17.407Z,10964
2017-07-04T22:03:20.266Z,10696
2017-07-04T22:04:23.156Z,10656
2017-07-04T22:05:26.106Z,10744
2017-07-04T22:06:28.969Z,10672
2017-07-04T22:07:31.685Z,10632
2017-07-04T22:08:34.574Z,10592
2017-07-04T22:09:37.229Z,10316
2017-07-04T22:10:39.808Z,9888
2017-07-04T22:11:42.606Z,9544
2017-07-04T22:12:45.302Z,9356
2017-07-04T22:13:48.001Z,9352
2017-07-04T22:14:50.533Z,9572
2017-07-04T22:15:53.166Z,9880
2017-07-04T22:16:55.759Z,10172
2017-07-04T22:17:58.373Z,10376
2017-07-04T22:19:01.886Z,10480
2017-07-04T22:20:04.809Z,10428
2017-07-04T22:21:07.656Z,10252
2017-07-04T22:22:10.500Z,10052
2017-07-04T22:23:13.441Z,9804
2017-07-04T22:24:16.320Z,9672
2017-07-04T22:25:19.002Z,9712
2017-07-04T22:26:21.726Z,9868
2017-07-04T22:27:24.419Z,10012
2017-07-04T22:28:27.188Z,9936
2017-07-04T22:29:29.942Z,9648
2017-07-04T22:30:32.503Z,9308
2017-07-04T22:31:37.920Z,9080
2017-07-04T22:32:43.335Z,8832
2017-07-04T22:33:46.075Z,8464
2017-07-04T22:34:48.991Z,8160
2017-07-04T22:35:54.374Z,7956
2017-07-04T22:36:59.977Z,7808
2017-07-04T22:38:02.820Z,7732
2017-07-04T22:39:06.079Z,7656
2017-07-04T22:40:11.494Z,7608
2017-07-04T22:41:14.262Z,7524
2017-07-04T22:42:16.862Z,7440
2017-07-04T22:43:19.353Z,7380
2017-07-04T22:44:22.043Z,7352
2017-07-04T22:45:26.537Z,7312
2017-07-04T22:46:29.082Z,7156
2017-07-04T22:47:31.833Z,6916
2017-07-04T22:48:34.537Z,6692
2017-07-04T22:49:38.974Z,6604
2017-07-04T22:50:41.779Z,6572
2017-07-04T22:51:44.372Z,6576
2017-07-04T22:52:47.069Z,6600
2017-07-04T22:53:49.766Z,6640
2017-07-04T22:54:52.343Z,6756
2017-07-04T22:55:55.021Z,6764
2017-07-04T22:56:58.068Z,6616
2017-07-04T22:58:00.705Z,6308
2017-07-04T22:59:04.193Z,6004
2017-07-04T23:00:06.868Z,5768
2017-07-04T23:01:12.643Z,5644
2017-07-04T23:02:15.454Z,5588
2017-07-04T23:03:18.170Z,5628
2017-07-04T23:04:20.826Z,5800
2017-07-04T23:05:23.478Z,6112
2017-07-04T23:06:26.018Z,6492
2017-07-04T23:07:29.528Z,6820
2017-07-04T23:08:32.311Z,7064
2017-07-04T23:09:35.181Z,7136
2017-07-04T23:10:37.865Z,7020
2017-07-04T23:11:40.525Z,6840
2017-07-04T23:12:43.164Z,6592
2017-07-04T23:13:45.974Z,6368
2017-07-04T23:14:48.711Z,6308
2017-07-04T23:15:51.467Z,6284
2017-07-04T23:16:55.081Z,6308
2017-07-04T23:17:57.632Z,6300
2017-07-04T23:19:00.246Z,6300
2017-07-04T23:20:02.947Z,6284
2017-07-04T23:21:05.648Z,6340
2017-07-04T23:22:10.023Z,6444
2017-07-04T23:23:12.747Z,6468
2017-07-04T23:24:15.483Z,6424
2017-07-04T23:25:18.215Z,6308
2017-07-04T23:26:21.020Z,6220
2017-07-04T23:27:23.714Z,6144
2017-07-04T23:28:26.333Z,6064
2017-07-04T23:29:31.895Z,5964
2017-07-04T23:30:34.608Z,5872
2017-07-04T23:31:37.299Z,5844
2017-07-04T23:32:40.227Z,5884
2017-07-04T23:33:42.958Z,6044
2017-07-04T23:34:45.735Z,6228
2017-07-04T23:35:48.765Z,6316
2017-07-04T23:36:51.463Z,6280
2017-07-04T23:37:54.420Z,6144
2017-07-04T23:38:57.380Z,6064
2017-07-04T23:39:59.970Z,5912
2017-07-04T23:41:02.675Z,5668
2017-07-04T23:42:07.142Z,5488
2017-07-04T23:43:09.956Z,5520
2017-07-04T23:44:12.805Z,5744
2017-07-04T23:45:15.655Z,5944
2017-07-04T23:46:18.686Z,6028
2017-07-04T23:47:21.585Z,5956
2017-07-04T23:48:24.540Z,5800
2017-07-04T23:49:29.122Z,5660
2017-07-04T23:50:31.642Z,5580
2017-07-04T23:51:34.363Z,5544
2017-07-04T23:52:36.943Z,5520
2017-07-04T23:53:41.379Z,5484
2017-07-04T23:54:43.982Z,5332
2017-07-04T23:55:46.574Z,5132
2017-07-04T23:56:51.040Z,4980
2017-07-04T23:57:53.888Z,4872
2017-07-04T23:58:56.623Z,4800
2017-07-04T23:59:59.487Z,4720
